logo
Search for airport 
image banner adimage banner adimage banner ad
image banner ad

TFFA - Desirade Grande Anse

Located in Grande Anse, Guadeloupe

ICAO - TFFA, IATA - DSD

Data provided by Airmate  

General information

Coordinates: N16°17'49" W61°5'4"
Elevation is 9 feet MSL.
Magnetic variation is -15.06° East
View others Airports in (unassigned)

Operational data

Special qualification required
Current time UTC:
Current local time:
Weather at : TFFR - Pointe A Pitre Le Raizet ( 47 km )
METAR: TFFR 070230Z AUTO 10005KT 060V130 9999 FEW039/// OVC088/// ///TCU 24/20 Q1018
TAF: TAF TFFR 041700Z 0418/0518 10015KT 9999 SCT030 PROB30 TEMPO 0418/0424 10015G25KT 4000 SHRA SCT020TCU BECMG 0500/0502 10005KT BECMG 0511/0513 09015G25KT
View NOTAMs / SUP AIP / TFR affecting this airport [VIEW]
Communications frequencies: [VIEW]

Runways:

RWY identifierQFULength (ft)Width (ft)SurfaceLDA (ft)
0971°198266ASPH1890
27251°198266ASPH1982

Airport contact information

Address: Grande Anse Guadeloupe

Satellite view of TFFA